Cote D IVoirian Star — A8SL4 — position and weather

sailwx.info

Track history (hours):
 
Tides and Currents Weather Stations Pressure Air Temp Water Temp Dewpoint Dewpoint Depression Visibility Wind Speed Wind Dir Waves Ship Positions

Cote D IVoirian Star

Last reported at 2015-Jan-25 21:19 UTC. Time now 2015-Jan-31 22:39 UTC.
Position N 08°16' W 014°46'.

Length 185 m; draft 8.1 m.

Type: Cargo ship. MMSI: 636014241.

Date/timePositionNaut miles runAvg speedWind from/ knotsBaromVisibWave heightAir tempDewpointWater temp
2015-Jan-25 21:19N 08°16' W 014°46'1519.3
2015-Jan-25 20:33N 08°27' W 014°56'2219.6
2015-Jan-25 19:26N 08°42' W 015°12'1719.8
2015-Jan-25 18:34N 08°55' W 015°24'2019.9
2015-Jan-25 17:34N 09°09' W 015°39'3019.7
2015-Jan-25 16:03N 09°31' W 015°59'1019.9
2015-Jan-25 15:33N 09°38' W 016°06'  
2015-Jan-17 10:26N 50°22' W 001°19'3 2.2
2015-Jan-17 09:13N 50°23' W 001°15'1415.2
2015-Jan-17 08:19N 50°22' W 000°54'1716.1
2015-Jan-17 07:17N 50°27' W 000°29'1315.9
2015-Jan-17 06:30N 50°30' W 000°10'1715.6
2015-Jan-17 05:22N 50°35' E 000°17'1315.9
2015-Jan-17 04:34N 50°39' E 000°35'1717.1
2015-Jan-17 03:34N 50°49' E 000°57'1818.0
2015-Jan-17 02:33N 51°00' E 001°20'1615.8
2015-Jan-17 01:33N 51°10' E 001°40'1717.0
2015-Jan-17 00:33N 51°23' E 001°57'1514.8
2015-Jan-16 23:34N 51°21' E 002°20'1414.3
2015-Jan-16 22:34N 51°23' E 002°43'1312.5
2015-Jan-16 21:33N 51°25' E 003°03'1414.3
2015-Jan-16 20:33N 51°25' E 003°26'1010.2
2015-Jan-16 19:33N 51°25' E 003°42'9 9.5
2015-Jan-16 18:34N 51°24' E 003°57'9 8.5
2015-Jan-16 17:33N 51°24' E 004°11'9 8.9
2015-Jan-16 16:34N 51°16' E 004°17'1 0.7
2015-Jan-16 15:33N 51°16' E 004°16'1 0.8
2015-Jan-16 14:31N 51°16' E 004°15'0 0.0
2015-Jan-16 13:31N 51°16' E 004°15'0 0.0
2015-Jan-16 12:28N 51°16' E 004°15'0 0.0
2015-Jan-16 11:28N 51°16' E 004°15'0 0.0
2015-Jan-16 10:31N 51°16' E 004°15'0 0.0
2015-Jan-16 09:28N 51°16' E 004°15'0 0.0
2015-Jan-16 08:31N 51°16' E 004°15'0 0.0
2015-Jan-16 07:28N 51°16' E 004°15'0 0.0
2015-Jan-16 06:31N 51°16' E 004°15'0 0.0
2015-Jan-16 05:31N 51°16' E 004°15'0 0.0
2015-Jan-16 04:28N 51°16' E 004°15'0 0.0
2015-Jan-16 03:33N 51°16' E 004°15'0 0.0
2015-Jan-16 02:25N 51°16' E 004°15'0 0.0
2015-Jan-16 01:31N 51°16' E 004°15'0 0.0
2015-Jan-16 00:28N 51°16' E 004°15'0 0.0
2015-Jan-15 23:31N 51°16' E 004°15'0 0.0
2015-Jan-15 22:22N 51°16' E 004°15'0 0.0
2015-Jan-15 21:31N 51°16' E 004°15'  
Track history (hours):
 
Tides and Currents Weather Stations Pressure Air Temp Water Temp Dewpoint Dewpoint Depression Visibility Wind Speed Wind Dir Waves Ship Positions

Cote D IVoirian Star

Last reported at 2015-Jan-25 21:19 UTC. Time now 2015-Jan-31 22:39 UTC.
Position N 08°16' W 014°46'.

Length 185 m; draft 8.1 m.

Type: Cargo ship. MMSI: 636014241.

Date/timePositionNaut miles runAvg speedWind from/ knotsBaromVisibWave heightAir tempDewpointWater temp
2015-Jan-25 21:19N 08°16' W 014°46'1519.3
2015-Jan-25 20:33N 08°27' W 014°56'2219.6
2015-Jan-25 19:26N 08°42' W 015°12'1719.8
2015-Jan-25 18:34N 08°55' W 015°24'2019.9
2015-Jan-25 17:34N 09°09' W 015°39'3019.7
2015-Jan-25 16:03N 09°31' W 015°59'1019.9
2015-Jan-25 15:33N 09°38' W 016°06'  
2015-Jan-17 10:26N 50°22' W 001°19'3 2.2
2015-Jan-17 09:13N 50°23' W 001°15'1415.2
2015-Jan-17 08:19N 50°22' W 000°54'1716.1
2015-Jan-17 07:17N 50°27' W 000°29'1315.9
2015-Jan-17 06:30N 50°30' W 000°10'1715.6
2015-Jan-17 05:22N 50°35' E 000°17'1315.9
2015-Jan-17 04:34N 50°39' E 000°35'1717.1
2015-Jan-17 03:34N 50°49' E 000°57'1818.0
2015-Jan-17 02:33N 51°00' E 001°20'1615.8
2015-Jan-17 01:33N 51°10' E 001°40'1717.0
2015-Jan-17 00:33N 51°23' E 001°57'1514.8
2015-Jan-16 23:34N 51°21' E 002°20'1414.3
2015-Jan-16 22:34N 51°23' E 002°43'1312.5
2015-Jan-16 21:33N 51°25' E 003°03'1414.3
2015-Jan-16 20:33N 51°25' E 003°26'1010.2
2015-Jan-16 19:33N 51°25' E 003°42'9 9.5
2015-Jan-16 18:34N 51°24' E 003°57'9 8.5
2015-Jan-16 17:33N 51°24' E 004°11'9 8.9
2015-Jan-16 16:34N 51°16' E 004°17'1 0.7
2015-Jan-16 15:33N 51°16' E 004°16'1 0.8
2015-Jan-16 14:31N 51°16' E 004°15'0 0.0
2015-Jan-16 13:31N 51°16' E 004°15'0 0.0
2015-Jan-16 12:28N 51°16' E 004°15'0 0.0
2015-Jan-16 11:28N 51°16' E 004°15'0 0.0
2015-Jan-16 10:31N 51°16' E 004°15'0 0.0
2015-Jan-16 09:28N 51°16' E 004°15'0 0.0
2015-Jan-16 08:31N 51°16' E 004°15'0 0.0
2015-Jan-16 07:28N 51°16' E 004°15'0 0.0
2015-Jan-16 06:31N 51°16' E 004°15'0 0.0
2015-Jan-16 05:31N 51°16' E 004°15'0 0.0
2015-Jan-16 04:28N 51°16' E 004°15'0 0.0
2015-Jan-16 03:33N 51°16' E 004°15'0 0.0
2015-Jan-16 02:25N 51°16' E 004°15'0 0.0
2015-Jan-16 01:31N 51°16' E 004°15'0 0.0
2015-Jan-16 00:28N 51°16' E 004°15'0 0.0
2015-Jan-15 23:31N 51°16' E 004°15'0 0.0
2015-Jan-15 22:22N 51°16' E 004°15'0 0.0
2015-Jan-15 21:31N 51°16' E 004°15'  

Dump ship's entire track history